Terminal Aerodrome Forecast
Issued by NWS

Current Version | Previous Version | Text Only | Print | Product List | Glossary On
Versions: 1 2 3 4 5 6 7 8 9 10 11 12 13
586
FTUS43 KGRB 190520
TAFMTW
TAF
KMTW 190520Z 1906/2006 26010G18KT P6SM BKN250
     FM192200 21007KT P6SM SKC=

USA.gov is the U.S. government's official web portal to all federal, state and local government web resources and services.